Time;durP1;ratioP1;P1;durP2;ratioP2;P2;SDS_P1;SDS_P2;PMS_P1;PMS_P2;Temp;Humidity;BMP_temperature;BMP_pressure;BME280_temperature;BME280_humidity;BME280_pressure;Samples;Min_cycle;Max_cycle;Signal;HPM_P1;HPM_P2
2023/11/09 00:02:13;;;;;;;2.73;0.70;;;;;;;8.17;94.21;100429.34;5054458;28;20438;-69
2023/11/09 00:04:39;;;;;;;2.50;0.77;;;;;;;8.18;93.94;100420.94;5054528;28;20561;-68
2023/11/09 00:07:07;;;;;;;2.00;0.70;;;;;;;8.17;93.83;100419.34;5054117;28;20521;-71
2023/11/09 00:09:34;;;;;;;1.90;0.50;;;;;;;8.18;93.80;100423.66;5054605;28;20496;-70
2023/11/09 00:12:00;;;;;;;2.10;0.53;;;;;;;8.18;94.68;100415.56;5053770;28;20814;-69
2023/11/09 00:14:27;;;;;;;2.30;0.73;;;;;;;8.19;94.10;100411.78;5053995;28;20465;-69
2023/11/09 00:16:55;;;;;;;2.37;0.80;;;;;;;8.20;93.80;100410.69;5054737;28;20536;-69
2023/11/09 00:19:22;;;;;;;2.07;0.57;;;;;;;8.22;94.32;100396.91;5053994;28;20529;-69
2023/11/09 00:21:48;;;;;;;2.00;0.50;;;;;;;8.22;93.77;100408.50;5053636;28;20491;-69
2023/11/09 00:24:16;;;;;;;3.30;0.80;;;;;;;8.25;94.06;100409.81;5053833;28;20490;-69
2023/11/09 00:26:45;;;;;;;2.40;0.67;;;;;;;8.26;93.85;100406.81;5054441;28;20474;-69
2023/11/09 00:29:12;;;;;;;1.93;0.50;;;;;;;8.26;93.51;100400.63;5053819;28;20447;-69
2023/11/09 00:31:39;;;;;;;2.93;0.70;;;;;;;8.25;93.67;100409.81;5054391;28;20802;-69
2023/11/09 00:34:09;;;;;;;2.00;0.60;;;;;;;8.20;93.84;100397.19;5053446;28;20494;-69
2023/11/09 00:36:36;;;;;;;2.57;0.90;;;;;;;8.20;93.55;100399.91;5053801;28;20415;-69
2023/11/09 00:39:04;;;;;;;2.00;0.50;;;;;;;8.17;93.62;100408.56;5053630;28;20849;-69
2023/11/09 00:41:30;;;;;;;2.00;0.57;;;;;;;8.16;94.51;100398.88;5053893;28;20546;-69
2023/11/09 00:43:57;;;;;;;2.10;0.50;;;;;;;8.15;93.78;100383.78;5053521;28;20466;-69
2023/11/09 00:46:24;;;;;;;1.90;0.50;;;;;;;8.18;94.00;100387.78;5053498;28;20457;-69
2023/11/09 00:48:51;;;;;;;2.23;0.60;;;;;;;8.14;94.25;100382.16;5053528;28;21016;-69
2023/11/09 00:51:20;;;;;;;1.90;0.50;;;;;;;8.13;93.70;100375.16;5053886;28;20462;-69
2023/11/09 00:53:46;;;;;;;2.30;0.73;;;;;;;8.13;93.72;100375.16;5053449;28;20550;-69
2023/11/09 00:56:14;;;;;;;1.87;0.40;;;;;;;8.14;94.20;100368.66;5053510;28;20531;-69
2023/11/09 00:58:41;;;;;;;2.20;0.50;;;;;;;8.16;93.74;100363.78;5053407;28;20438;-69
2023/11/09 01:01:07;;;;;;;2.00;0.50;;;;;;;8.13;93.69;100360.88;5053496;28;20446;-69
2023/11/09 01:03:34;;;;;;;1.90;0.50;;;;;;;8.09;94.77;100357.94;5053617;28;20465;-69
2023/11/09 01:06:05;;;;;;;2.10;0.70;;;;;;;8.08;94.66;100354.44;5053788;28;20447;-69
2023/11/09 01:08:33;;;;;;;1.80;0.40;;;;;;;8.09;94.66;100347.16;5053876;28;20555;-70
2023/11/09 01:11:05;;;;;;;4.00;3.03;;;;;;;8.10;94.73;100346.06;5053504;28;20434;-69
2023/11/09 01:13:32;;;;;;;2.37;0.60;;;;;;;8.09;94.64;100337.16;5052987;28;20469;-69
2023/11/09 01:15:59;;;;;;;1.90;0.43;;;;;;;8.11;95.08;100333.41;5053635;28;20446;-69
2023/11/09 01:18:25;;;;;;;1.90;0.50;;;;;;;8.13;94.96;100337.38;5053151;28;20505;-69
2023/11/09 01:20:52;;;;;;;2.70;0.90;;;;;;;8.13;95.00;100334.69;5053517;28;20521;-69
2023/11/09 01:23:19;;;;;;;1.90;0.50;;;;;;;8.17;94.68;100324.94;5053196;28;20465;-69
2023/11/09 01:25:48;;;;;;;2.50;1.00;;;;;;;8.17;94.71;100322.22;5052912;28;20834;-70
2023/11/09 01:28:15;;;;;;;2.93;0.80;;;;;;;8.18;94.25;100317.63;5053752;28;20490;-70
2023/11/09 01:30:42;;;;;;;3.33;0.60;;;;;;;8.16;94.89;100309.84;5053321;28;20438;-70
2023/11/09 01:33:09;;;;;;;2.00;0.50;;;;;;;8.19;94.24;100308.44;5053342;28;20948;-70
2023/11/09 01:35:35;;;;;;;1.90;0.40;;;;;;;8.20;94.03;100305.47;5052926;28;20493;-69
2023/11/09 01:38:02;;;;;;;3.13;0.50;;;;;;;8.18;94.41;100307.63;5053099;28;20441;-69
2023/11/09 01:40:29;;;;;;;2.00;0.60;;;;;;;8.19;95.53;100308.44;5053264;28;20526;-69
2023/11/09 01:42:57;;;;;;;3.40;0.90;;;;;;;8.20;94.42;100302.78;5053137;28;20443;-70
2023/11/09 01:45:24;;;;;;;1.93;0.47;;;;;;;8.19;94.18;100295.78;5052877;28;20814;-70
2023/11/09 01:47:51;;;;;;;2.20;0.70;;;;;;;8.15;95.02;100296.66;5052918;28;20533;-70
2023/11/09 01:50:18;;;;;;;2.60;1.00;;;;;;;8.17;94.43;100299.84;5052903;28;20481;-70
2023/11/09 01:52:45;;;;;;;1.90;0.50;;;;;;;8.12;95.21;100283.75;5052575;28;20446;-70
2023/11/09 01:55:14;;;;;;;2.30;0.60;;;;;;;8.14;94.95;100284.22;5052536;28;20478;-70
2023/11/09 01:57:42;;;;;;;2.47;0.77;;;;;;;8.11;95.11;100279.44;5052944;28;20472;-70
2023/11/09 02:00:13;;;;;;;2.63;0.67;;;;;;;8.09;95.75;100277.03;5052688;28;20438;-70
2023/11/09 02:02:41;;;;;;;1.87;0.40;;;;;;;8.10;95.08;100267.81;5052591;28;20422;-70
2023/11/09 02:05:09;;;;;;;2.43;0.53;;;;;;;8.11;96.15;100269.47;5053148;28;20448;-70
2023/11/09 02:07:37;;;;;;;2.70;0.80;;;;;;;8.11;96.48;100260.56;5052795;28;20481;-70
2023/11/09 02:10:06;;;;;;;2.00;0.67;;;;;;;8.09;96.15;100267.03;5055137;28;20453;-70
2023/11/09 02:12:32;;;;;;;2.10;0.53;;;;;;;8.12;95.44;100262.97;5056525;28;21051;-70
2023/11/09 02:14:59;;;;;;;3.90;0.83;;;;;;;8.12;95.41;100259.47;5056231;28;20544;-69
2023/11/09 02:17:27;;;;;;;2.47;0.70;;;;;;;8.14;95.43;100265.34;5056331;28;20454;-70
2023/11/09 02:19:54;;;;;;;2.10;0.50;;;;;;;8.16;95.04;100255.88;5056269;28;20442;-69
2023/11/09 02:22:22;;;;;;;2.00;0.60;;;;;;;8.15;95.35;100254.28;5056281;28;20469;-69
2023/11/09 02:24:51;;;;;;;1.90;0.40;;;;;;;8.15;95.02;100246.19;5056180;28;20569;-69
2023/11/09 02:27:17;;;;;;;2.57;0.87;;;;;;;8.17;95.04;100251.28;5056197;28;20470;-69
2023/11/09 02:29:44;;;;;;;2.20;0.70;;;;;;;8.17;95.30;100244.00;5056454;28;20492;-69
2023/11/09 02:32:11;;;;;;;1.90;0.40;;;;;;;8.15;95.23;100248.91;5056190;28;20442;-69
2023/11/09 02:34:38;;;;;;;3.50;0.93;;;;;;;8.18;95.10;100239.41;5055891;28;20902;-69
2023/11/09 02:37:06;;;;;;;2.17;0.63;;;;;;;8.16;95.32;100239.69;5055947;28;20439;-69
2023/11/09 02:39:33;;;;;;;4.93;0.80;;;;;;;8.14;95.69;100230.28;5055833;28;20470;-70
2023/11/09 02:42:02;;;;;;;1.90;0.50;;;;;;;8.13;96.53;100226.78;5055559;28;21021;-69
2023/11/09 02:44:28;;;;;;;1.90;0.47;;;;;;;8.17;96.46;100225.09;5055607;28;20462;-70
2023/11/09 02:46:55;;;;;;;2.27;0.70;;;;;;;8.18;95.98;100229.41;5055819;28;20427;-69
2023/11/09 02:49:22;;;;;;;1.90;0.40;;;;;;;8.18;96.21;100226.72;5055347;28;21008;-69
2023/11/09 02:51:49;;;;;;;2.50;0.67;;;;;;;8.19;95.72;100217.53;5055359;28;20438;-69
2023/11/09 02:54:15;;;;;;;2.13;0.73;;;;;;;8.16;96.92;100222.72;5055975;28;20462;-69
2023/11/09 02:56:42;;;;;;;2.57;0.73;;;;;;;8.16;97.69;100218.13;5055340;28;20474;-69
2023/11/09 02:59:10;;;;;;;2.30;0.70;;;;;;;8.19;97.36;100208.63;5055854;28;20853;-69
2023/11/09 03:01:37;;;;;;;1.90;0.50;;;;;;;8.19;97.02;100209.44;5055171;28;20938;-69
2023/11/09 03:04:04;;;;;;;4.03;0.70;;;;;;;8.17;96.50;100208.13;5055606;28;20462;-69
2023/11/09 03:06:31;;;;;;;3.23;1.10;;;;;;;8.19;97.23;100208.63;5055713;28;20488;-69
2023/11/09 03:08:57;;;;;;;2.67;0.80;;;;;;;8.22;96.96;100199.94;5055250;28;20584;-69
2023/11/09 03:11:24;;;;;;;2.00;0.60;;;;;;;8.23;96.95;100206.94;5055032;28;20814;-69
2023/11/09 03:13:51;;;;;;;2.47;0.80;;;;;;;8.27;96.71;100208.75;5054986;28;20554;-70
2023/11/09 03:16:21;;;;;;;2.50;0.70;;;;;;;8.34;96.59;100198.38;5055516;28;20815;-69
2023/11/09 03:18:48;;;;;;;3.20;0.73;;;;;;;8.35;96.79;100193.78;5054954;28;20946;-70
2023/11/09 03:21:15;;;;;;;2.37;0.73;;;;;;;8.40;96.25;100191.03;5054511;28;20469;-68
2023/11/09 03:23:43;;;;;;;3.43;0.70;;;;;;;8.45;95.09;100187.44;5055101;28;20478;-71
2023/11/09 03:26:09;;;;;;;2.07;0.60;;;;;;;8.43;94.63;100190.44;5055374;28;20452;-68
2023/11/09 03:28:38;;;;;;;3.80;0.70;;;;;;;8.49;94.53;100188.47;5054838;28;20496;-69
2023/11/09 03:31:04;;;;;;;2.50;0.80;;;;;;;8.55;94.09;100184.59;5055103;28;20463;-69
2023/11/09 03:33:32;;;;;;;2.00;0.60;;;;;;;8.57;94.05;100179.69;5054605;28;20799;-69
2023/11/09 03:35:59;;;;;;;2.20;0.50;;;;;;;8.58;93.65;100176.69;5055007;28;20438;-69
2023/11/09 03:38:26;;;;;;;2.17;0.60;;;;;;;8.61;93.75;100164.50;5054854;28;20812;-70
2023/11/09 03:40:51;;;;;;;2.10;0.60;;;;;;;8.63;93.81;100172.28;5054796;28;20533;-69
2023/11/09 03:43:19;;;;;;;2.00;0.50;;;;;;;8.67;93.80;100166.00;5055051;28;20541;-69
2023/11/09 03:45:46;;;;;;;2.50;0.67;;;;;;;8.71;93.22;100164.28;5054597;28;20333;-69
2023/11/09 03:48:14;;;;;;;2.20;0.63;;;;;;;8.73;93.08;100154.00;5054570;28;20482;-69
2023/11/09 03:50:42;;;;;;;2.00;0.70;;;;;;;8.76;93.12;100156.09;5054760;28;20450;-69
2023/11/09 03:53:09;;;;;;;3.50;0.97;;;;;;;8.76;93.73;100155.28;5054466;28;20525;-69
2023/11/09 03:55:36;;;;;;;2.40;0.53;;;;;;;8.78;94.37;100142.31;5054443;28;20461;-69
2023/11/09 03:58:03;;;;;;;2.40;0.70;;;;;;;8.80;93.56;100135.50;5054461;28;21028;-69
2023/11/09 04:00:30;;;;;;;2.00;0.50;;;;;;;8.80;93.19;100132.78;5054428;28;20442;-69
2023/11/09 04:02:56;;;;;;;2.23;0.50;;;;;;;8.80;93.67;100135.50;5054241;28;20532;-69
2023/11/09 04:05:23;;;;;;;2.47;0.67;;;;;;;8.83;93.80;100129.50;5054108;28;20445;-70
2023/11/09 04:07:51;;;;;;;2.00;0.60;;;;;;;8.89;93.68;100126.69;5054140;28;20445;-70
2023/11/09 04:10:18;;;;;;;2.60;0.73;;;;;;;8.89;94.36;100121.28;5054062;28;20439;-69
2023/11/09 04:12:45;;;;;;;2.13;0.60;;;;;;;8.93;94.06;100119.59;5053655;28;20544;-69
2023/11/09 04:15:12;;;;;;;1.97;0.50;;;;;;;8.94;94.16;100111.22;5053837;28;20540;-68
2023/11/09 04:17:38;;;;;;;1.90;0.43;;;;;;;8.97;94.22;100117.91;5054087;28;20481;-68
2023/11/09 04:20:07;;;;;;;2.30;0.87;;;;;;;9.00;93.72;100106.50;5054367;28;20517;-68
2023/11/09 04:22:34;;;;;;;1.90;0.40;;;;;;;9.00;94.36;100103.78;5053793;28;20457;-69
2023/11/09 04:25:03;;;;;;;2.07;0.70;;;;;;;9.04;94.61;100097.47;5053780;28;20561;-69
2023/11/09 04:27:30;;;;;;;2.00;0.50;;;;;;;9.11;94.04;100097.06;5053913;28;20529;-69
2023/11/09 04:29:57;;;;;;;2.40;0.60;;;;;;;9.13;93.88;100092.16;5054035;28;20479;-69
2023/11/09 04:32:24;;;;;;;2.37;0.70;;;;;;;9.12;93.72;100082.47;5053400;28;20779;-69
2023/11/09 04:34:51;;;;;;;2.97;1.00;;;;;;;9.16;92.13;100083.44;5053780;28;20462;-69
2023/11/09 04:37:20;;;;;;;2.40;0.70;;;;;;;9.16;91.50;100078.03;5054318;28;20545;-69
2023/11/09 04:39:50;;;;;;;2.40;0.63;;;;;;;9.12;91.38;100076.22;5053886;28;20927;-69
2023/11/09 04:42:22;;;;;;;2.20;0.63;;;;;;;9.12;91.83;100068.13;5054349;28;20426;-69
2023/11/09 04:44:50;;;;;;;2.10;0.60;;;;;;;9.18;91.10;100075.84;5053397;28;20973;-69
2023/11/09 04:47:21;;;;;;;2.00;0.50;;;;;;;9.18;90.69;100067.72;5053389;28;20414;-69
2023/11/09 04:49:57;;;;;;;2.00;0.50;;;;;;;9.14;90.90;100061.34;5054003;28;20506;-69
2023/11/09 04:52:26;;;;;;;2.47;0.90;;;;;;;9.17;90.20;100059.94;5053656;28;20848;-69
2023/11/09 04:55:09;;;;;;;2.17;0.60;;;;;;;9.18;90.01;100054.22;5053477;28;20470;-69
2023/11/09 05:08:34;;;;;;;2.10;0.70;;;;;;;9.32;89.45;100033.34;5053779;28;20508;-69
2023/11/09 05:11:03;;;;;;;2.40;0.60;;;;;;;9.39;89.34;100040.25;5053097;28;20492;-68
2023/11/09 05:13:31;;;;;;;2.10;0.70;;;;;;;9.38;90.51;100030.53;5053355;28;20494;-68
2023/11/09 05:15:58;;;;;;;2.10;0.50;;;;;;;9.41;90.14;100025.31;5053153;28;20513;-69
2023/11/09 05:18:24;;;;;;;1.80;0.40;;;;;;;9.45;89.94;100028.19;5053303;28;20446;-69
2023/11/09 05:20:51;;;;;;;2.30;0.87;;;;;;;9.45;89.34;100020.88;5053249;28;20442;-69
2023/11/09 05:23:18;;;;;;;2.30;0.60;;;;;;;9.47;89.48;100017.88;5052842;28;21028;-69
2023/11/09 05:25:45;;;;;;;2.10;0.60;;;;;;;9.45;90.09;100014.69;5053334;28;20449;-69
2023/11/09 05:28:12;;;;;;;1.90;0.53;;;;;;;9.48;90.27;100004.06;5053242;28;20441;-69
2023/11/09 05:30:40;;;;;;;2.00;0.57;;;;;;;9.52;88.85;100009.66;5053213;28;20841;-69
2023/11/09 05:33:06;;;;;;;1.90;0.50;;;;;;;9.56;88.50;100018.72;5052979;28;20545;-69
2023/11/09 05:35:33;;;;;;;2.50;0.60;;;;;;;9.56;89.01;100011.44;5052887;28;20536;-69
2023/11/09 05:38:00;;;;;;;2.20;0.57;;;;;;;9.59;88.91;100016.22;5052568;28;20470;-69
2023/11/09 05:40:26;;;;;;;2.30;0.50;;;;;;;9.58;89.12;100025.44;5052834;28;21001;-69
2023/11/09 05:42:53;;;;;;;2.73;0.80;;;;;;;9.57;89.14;100017.63;5052711;28;20587;-69
2023/11/09 05:45:20;;;;;;;2.00;0.60;;;;;;;9.61;88.56;100013.22;5055022;28;20478;-68
2023/11/09 05:47:48;;;;;;;1.90;0.43;;;;;;;9.63;88.11;100002.09;5056641;28;20466;-69
2023/11/09 05:50:15;;;;;;;2.20;0.63;;;;;;;9.61;87.71;99999.69;5056783;28;20535;-68
2023/11/09 05:52:41;;;;;;;3.03;0.77;;;;;;;9.64;87.39;100001.75;5056946;28;20485;-70
2023/11/09 05:55:10;;;;;;;2.40;0.67;;;;;;;9.69;86.77;100003.53;5056509;28;20461;-68
2023/11/09 05:57:37;;;;;;;1.90;0.53;;;;;;;9.71;86.62;100002.13;5056175;28;20910;-70
2023/11/09 06:00:05;;;;;;;2.50;0.67;;;;;;;9.72;86.85;99994.81;5056649;28;20524;-68
2023/11/09 06:02:32;;;;;;;2.30;0.60;;;;;;;9.73;87.63;99994.50;5056712;28;20477;-69
2023/11/09 06:05:00;;;;;;;2.90;0.80;;;;;;;9.76;86.53;99996.59;5056612;28;20519;-69
2023/11/09 06:07:27;;;;;;;2.13;0.50;;;;;;;9.76;86.40;99988.47;5056441;28;20445;-69
2023/11/09 06:09:54;;;;;;;2.00;0.50;;;;;;;9.78;87.16;99993.56;5056368;28;20575;-69
2023/11/09 06:12:21;;;;;;;2.73;0.90;;;;;;;9.80;86.26;99986.75;5056173;28;20468;-69
2023/11/09 06:14:47;;;;;;;2.03;0.60;;;;;;;9.83;85.70;99988.84;5056368;28;20961;-70
2023/11/09 06:17:14;;;;;;;2.00;0.60;;;;;;;9.90;84.95;99998.41;5056465;28;20874;-69
2023/11/09 06:19:41;;;;;;;2.03;0.50;;;;;;;9.98;83.59;100001.16;5056207;28;20438;-69
2023/11/09 06:22:09;;;;;;;2.67;0.70;;;;;;;9.99;83.97;99999.25;5056647;28;20442;-69
2023/11/09 06:24:37;;;;;;;1.90;0.50;;;;;;;9.99;83.91;99989.22;5056456;28;20501;-69
2023/11/09 06:27:06;;;;;;;2.07;0.70;;;;;;;9.99;84.07;99988.44;5056513;28;20442;-69
2023/11/09 06:29:33;;;;;;;2.20;0.73;;;;;;;9.99;84.36;99999.25;5056517;28;20489;-69
2023/11/09 06:32:00;;;;;;;1.90;0.50;;;;;;;10.02;84.11;99995.94;5055721;28;20451;-69
2023/11/09 06:34:27;;;;;;;2.30;0.60;;;;;;;10.01;83.52;99989.72;5056133;28;20459;-69
2023/11/09 06:36:53;;;;;;;1.90;0.50;;;;;;;10.06;83.06;99988.78;5055620;28;20938;-70
2023/11/09 06:39:22;;;;;;;2.20;0.70;;;;;;;10.07;83.43;99984.97;5055928;28;20521;-70
2023/11/09 06:41:49;;;;;;;2.87;0.80;;;;;;;10.05;84.08;99982.59;5055913;28;20446;-70
2023/11/09 06:44:16;;;;;;;1.90;0.50;;;;;;;10.05;84.80;99985.28;5055517;28;20466;-69
2023/11/09 06:46:44;;;;;;;1.93;0.60;;;;;;;10.07;83.86;99976.84;5055325;28;20450;-69
2023/11/09 06:49:11;;;;;;;2.50;0.80;;;;;;;10.15;82.55;99983.41;5055416;28;20482;-69
2023/11/09 06:51:39;;;;;;;2.00;0.60;;;;;;;10.17;82.49;99984.69;5056292;28;20521;-69
2023/11/09 06:54:06;;;;;;;2.00;0.60;;;;;;;10.20;82.55;99980.56;5055593;28;20456;-69
2023/11/09 06:56:36;;;;;;;2.60;0.77;;;;;;;10.25;82.00;99983.16;5055403;28;20449;-69
2023/11/09 06:59:03;;;;;;;1.87;0.43;;;;;;;10.29;80.76;99984.91;5055647;28;20419;-70
2023/11/09 07:01:33;;;;;;;2.60;0.80;;;;;;;10.34;80.37;99982.06;5055857;28;20449;-70
2023/11/09 07:03:59;;;;;;;2.40;0.80;;;;;;;10.36;80.44;99987.19;5055061;28;20844;-69
2023/11/09 07:06:27;;;;;;;2.20;0.90;;;;;;;10.40;80.28;99984.63;5055422;28;20889;-70
2023/11/09 07:08:54;;;;;;;2.50;0.77;;;;;;;10.38;80.78;99982.25;5055365;28;20527;-69
2023/11/09 07:11:21;;;;;;;2.50;0.73;;;;;;;10.38;80.54;99982.25;5055274;28;20438;-70
2023/11/09 07:13:49;;;;;;;2.10;0.60;;;;;;;10.42;79.83;99980.50;5055031;28;20469;-69
2023/11/09 07:16:16;;;;;;;2.30;0.60;;;;;;;10.46;80.70;99988.78;5055444;28;20533;-69
2023/11/09 07:18:43;;;;;;;1.93;0.60;;;;;;;10.44;80.46;99991.00;5055256;28;20438;-69
2023/11/09 07:21:11;;;;;;;2.00;0.60;;;;;;;10.42;81.07;99988.63;5055129;28;20438;-70
2023/11/09 07:23:37;;;;;;;2.10;0.70;;;;;;;10.43;80.84;99989.41;5055042;28;20493;-70
2023/11/09 07:26:04;;;;;;;2.27;0.50;;;;;;;10.49;80.41;99982.72;5055425;28;20528;-71
2023/11/09 07:28:31;;;;;;;1.90;0.50;;;;;;;10.51;81.08;99986.72;5055058;28;20442;-70
2023/11/09 07:31:00;;;;;;;2.27;0.70;;;;;;;10.57;80.12;99985.47;5055283;28;20482;-70
2023/11/09 07:33:27;;;;;;;1.90;0.50;;;;;;;10.59;79.51;99982.44;5054638;28;20872;-69
2023/11/09 07:35:54;;;;;;;2.93;0.70;;;;;;;10.56;79.54;99981.16;5054525;28;20521;-69
2023/11/09 07:38:21;;;;;;;2.40;0.60;;;;;;;10.60;79.00;99974.00;5055024;28;20524;-68
2023/11/09 07:40:49;;;;;;;2.10;0.60;;;;;;;10.56;80.02;99977.66;5054693;28;20500;-69
2023/11/09 07:43:15;;;;;;;3.40;1.03;;;;;;;10.58;79.67;99975.41;5054355;28;20997;-70
2023/11/09 07:45:42;;;;;;;2.47;0.60;;;;;;;10.57;80.40;99979.25;5054329;28;20450;-69
2023/11/09 07:48:10;;;;;;;2.20;0.63;;;;;;;10.59;80.61;99975.13;5054309;28;20442;-69
2023/11/09 07:50:38;;;;;;;2.00;0.67;;;;;;;10.63;80.12;99977.22;5054506;28;20577;-69
2023/11/09 07:53:05;;;;;;;2.40;0.87;;;;;;;10.68;80.40;99972.44;5054119;28;20870;-69
2023/11/09 07:55:32;;;;;;;2.10;0.50;;;;;;;10.71;80.71;99971.78;5054423;28;20442;-69
2023/11/09 07:58:02;;;;;;;2.20;0.60;;;;;;;10.71;79.28;99962.84;5054605;28;20530;-69
2023/11/09 08:00:30;;;;;;;2.80;0.67;;;;;;;10.70;79.72;99956.66;5054019;28;20964;-70
2023/11/09 08:02:58;;;;;;;2.30;0.70;;;;;;;10.74;80.52;99956.81;5053902;28;20442;-70
2023/11/09 08:05:26;;;;;;;2.00;0.53;;;;;;;10.78;79.76;99953.16;5054297;28;20500;-70
2023/11/09 08:07:53;;;;;;;5.00;0.90;;;;;;;10.81;80.34;99955.25;5054049;28;20525;-70
2023/11/09 08:10:20;;;;;;;2.77;0.97;;;;;;;10.89;80.26;99959.06;5054219;28;20488;-71
2023/11/09 08:12:47;;;;;;;1.90;0.57;;;;;;;10.92;80.05;99955.69;5054132;28;20922;-71
2023/11/09 08:15:18;;;;;;;2.50;0.80;;;;;;;10.95;78.79;99959.69;5054064;28;20524;-71
2023/11/09 08:17:45;;;;;;;2.00;0.60;;;;;;;10.98;77.81;99950.91;5054164;28;20917;-71
2023/11/09 08:20:14;;;;;;;2.23;0.67;;;;;;;11.01;78.06;99953.00;5053796;28;20949;-71
2023/11/09 08:22:44;;;;;;;2.40;0.80;;;;;;;11.04;78.93;99955.06;5054208;28;20449;-71
2023/11/09 08:25:12;;;;;;;2.20;0.80;;;;;;;11.08;78.22;99945.19;5054216;28;20454;-71
2023/11/09 08:27:40;;;;;;;2.30;0.77;;;;;;;11.11;77.31;99933.69;5053951;28;20442;-71
2023/11/09 08:30:09;;;;;;;2.00;0.57;;;;;;;11.09;77.73;99942.16;5054123;28;20600;-72
2023/11/09 08:32:37;;;;;;;2.30;0.60;;;;;;;11.12;78.18;99946.16;5054233;28;20442;-71
2023/11/09 08:35:10;;;;;;;1.93;0.50;;;;;;;11.15;77.31;99939.28;5053721;28;20494;-71
2023/11/09 08:37:38;;;;;;;1.90;0.50;;;;;;;11.16;76.42;99936.25;5053809;28;20422;-71
2023/11/09 08:40:16;;;;;;;1.90;0.50;;;;;;;11.18;76.54;99939.44;5054066;28;20443;-73
2023/11/09 08:42:44;;;;;;;2.00;0.60;;;;;;;11.21;77.22;99943.44;5053417;28;20798;-70
2023/11/09 08:45:13;;;;;;;3.57;0.80;;;;;;;11.19;77.83;99941.03;5053567;28;20470;-70
2023/11/09 08:47:38;;;;;;;2.10;0.50;;;;;;;11.24;76.32;99945.47;5054394;28;20522;-73
2023/11/09 08:50:08;;;;;;;2.13;0.80;;;;;;;11.25;76.96;99936.25;5053900;28;21080;-74
2023/11/09 08:52:35;;;;;;;1.90;0.40;;;;;;;11.25;76.08;99937.03;5054092;28;20255;-74
2023/11/09 08:55:04;;;;;;;1.90;0.50;;;;;;;11.28;76.49;99944.50;5053581;28;20454;-73
2023/11/09 08:57:32;;;;;;;2.83;0.70;;;;;;;11.33;74.94;99940.84;5053373;28;20445;-73
2023/11/09 09:00:00;;;;;;;9.10;0.90;;;;;;;11.36;74.98;99941.00;5053159;28;20438;-70
2023/11/09 09:02:28;;;;;;;2.60;0.77;;;;;;;11.41;74.85;99937.31;5053418;28;20442;-71
2023/11/09 09:04:55;;;;;;;2.00;0.60;;;;;;;11.44;75.01;99938.59;5053701;28;20473;-71
2023/11/09 09:07:22;;;;;;;2.20;0.80;;;;;;;11.49;73.97;99938.44;5053924;28;20430;-71
2023/11/09 09:09:49;;;;;;;2.67;0.50;;;;;;;11.51;75.01;99930.75;5053384;28;20485;-71
2023/11/09 09:12:16;;;;;;;1.80;0.40;;;;;;;11.55;75.46;99923.56;5053450;28;20474;-71
2023/11/09 09:14:46;;;;;;;2.30;0.77;;;;;;;11.58;74.61;99923.72;5052975;28;20466;-71
2023/11/09 09:17:12;;;;;;;1.87;0.47;;;;;;;11.62;74.74;99934.72;5054008;28;20519;-71
2023/11/09 09:19:41;;;;;;;2.50;0.80;;;;;;;11.65;75.12;99934.09;5054917;28;20492;-71
2023/11/09 09:22:09;;;;;;;2.90;0.70;;;;;;;11.69;74.08;99937.75;5057511;28;20446;-71
2023/11/09 09:24:38;;;;;;;2.10;0.60;;;;;;;11.72;74.39;99936.28;5057267;28;20465;-71
2023/11/09 09:27:06;;;;;;;2.40;1.07;;;;;;;11.79;74.46;99931.94;5057696;28;20434;-71
2023/11/09 09:29:35;;;;;;;3.37;0.70;;;;;;;11.83;74.62;99932.94;5056890;28;20480;-71
2023/11/09 09:32:04;;;;;;;2.17;0.77;;;;;;;11.92;75.23;99930.19;5057145;28;20522;-71
2023/11/09 09:34:31;;;;;;;2.30;0.77;;;;;;;12.00;72.93;99925.84;5056752;28;20962;-71
2023/11/09 09:36:59;;;;;;;2.57;0.60;;;;;;;12.04;71.80;99915.91;5057233;28;20461;-71
2023/11/09 09:39:27;;;;;;;2.60;0.83;;;;;;;12.07;72.06;99913.34;5057019;28;20446;-71
2023/11/09 09:41:58;;;;;;;2.30;0.80;;;;;;;12.09;72.33;99915.75;5057152;28;20492;-71
2023/11/09 09:44:26;;;;;;;2.00;0.60;;;;;;;12.16;71.51;99913.28;5056931;28;20466;-71
2023/11/09 09:46:56;;;;;;;2.33;0.73;;;;;;;12.21;70.00;99913.09;5057097;28;20441;-71
2023/11/09 09:49:25;;;;;;;1.83;0.43;;;;;;;12.20;69.24;99916.94;5056995;28;20841;-71
2023/11/09 09:51:54;;;;;;;1.90;0.50;;;;;;;12.21;70.88;99913.09;5057045;28;20478;-69
2023/11/09 09:54:21;;;;;;;2.10;0.60;;;;;;;12.25;69.68;99918.66;5041028;28;20519;-70
2023/11/09 09:56:48;;;;;;;1.90;0.43;;;;;;;12.26;69.53;99917.53;5056855;28;20442;-70
2023/11/09 09:59:18;;;;;;;3.50;0.87;;;;;;;12.26;68.98;99921.06;5056841;28;20442;-68
2023/11/09 10:01:48;;;;;;;2.10;0.60;;;;;;;12.22;70.02;99922.84;5056396;28;20453;-68
2023/11/09 10:04:16;;;;;;;2.30;0.70;;;;;;;12.24;69.94;99915.16;5056624;28;20458;-71
2023/11/09 10:06:45;;;;;;;2.20;0.60;;;;;;;12.20;69.72;99918.88;5056540;28;20474;-68
2023/11/09 10:09:12;;;;;;;2.00;0.70;;;;;;;12.24;68.31;99912.44;5056976;28;20449;-68
2023/11/09 10:11:38;;;;;;;1.80;0.50;;;;;;;12.27;67.73;99914.50;5056325;28;20550;-68
2023/11/09 10:14:06;;;;;;;1.90;0.50;;;;;;;12.26;67.58;99917.53;5056074;28;20830;-68
2023/11/09 10:16:34;;;;;;;1.80;0.47;;;;;;;12.24;68.65;99920.59;5056186;28;20952;-68
2023/11/09 10:19:02;;;;;;;1.90;0.60;;;;;;;12.23;68.43;99916.28;5056175;28;20534;-69
2023/11/09 10:21:30;;;;;;;2.60;0.60;;;;;;;12.26;67.21;99910.22;5056011;28;20803;-68
2023/11/09 10:24:02;;;;;;;2.73;0.87;;;;;;;12.20;68.44;99910.72;5056221;28;20468;-68
2023/11/09 10:26:41;;;;;;;3.40;1.10;;;;;;;12.18;67.31;99915.69;5055825;28;20915;-68
2023/11/09 10:29:13;;;;;;;2.47;1.07;;;;;;;12.17;66.65;99909.44;5055998;28;20537;-68
2023/11/09 10:31:40;;;;;;;2.63;0.50;;;;;;;12.15;67.52;99902.75;5055432;28;20462;-68
2023/11/09 10:34:11;;;;;;;2.30;0.60;;;;;;;12.12;68.54;99906.91;5056246;28;20466;-68
2023/11/09 10:36:38;;;;;;;2.30;0.67;;;;;;;12.10;68.31;99909.19;5055962;28;20484;-68
2023/11/09 10:39:15;;;;;;;1.80;0.50;;;;;;;12.20;65.75;99903.38;5056089;28;20918;-68
2023/11/09 10:41:42;;;;;;;2.33;0.63;;;;;;;12.23;64.94;99907.34;5056242;28;20422;-67
2023/11/09 10:44:10;;;;;;;2.53;0.90;;;;;;;12.23;65.54;99899.22;5056121;28;20545;-67
2023/11/09 10:46:38;;;;;;;1.80;0.43;;;;;;;12.20;65.24;99897.94;5055414;28;20520;-67
2023/11/09 10:49:06;;;;;;;2.20;0.70;;;;;;;12.13;65.79;99889.53;5056123;28;20533;-68
2023/11/09 10:51:35;;;;;;;2.30;0.80;;;;;;;12.15;66.10;99900.06;5055367;28;20492;-68
2023/11/09 10:54:03;;;;;;;1.87;0.43;;;;;;;12.18;65.54;99894.78;5055576;28;20458;-68
2023/11/09 10:56:32;;;;;;;3.13;0.70;;;;;;;12.18;66.19;99900.19;5055698;28;20442;-68
2023/11/09 10:59:00;;;;;;;2.50;0.70;;;;;;;12.18;66.69;99894.78;5055916;28;20439;-68
2023/11/09 11:01:30;;;;;;;2.83;0.90;;;;;;;12.19;66.82;99896.34;5056154;28;20480;-68
2023/11/09 11:03:59;;;;;;;2.17;0.70;;;;;;;12.18;67.13;99896.69;5055819;28;20466;-68
2023/11/09 11:06:31;;;;;;;2.47;0.97;;;;;;;12.21;66.33;99899.53;5055629;28;20435;-68
2023/11/09 11:09:07;;;;;;;2.17;0.73;;;;;;;12.25;66.87;99892.31;5055612;28;20906;-68
2023/11/09 11:11:36;;;;;;;2.60;0.80;;;;;;;12.26;67.00;99890.38;5055593;28;20466;-68
2023/11/09 11:14:07;;;;;;;2.00;0.53;;;;;;;12.31;65.71;99882.06;5055361;28;20516;-69
2023/11/09 11:16:56;;;;;;;1.90;0.50;;;;;;;12.34;67.03;99875.97;5055099;28;20459;-69
2023/11/09 11:20:09;;;;;;;2.30;0.80;;;;;;;12.36;65.86;99877.22;5054983;28;20418;-68
2023/11/09 11:22:51;;;;;;;1.80;0.50;;;;;;;12.36;66.50;99885.38;5055129;28;20948;-68
2023/11/09 11:25:30;;;;;;;2.10;0.50;;;;;;;12.39;66.20;99881.19;5054944;28;20445;-68
2023/11/09 11:28:00;;;;;;;2.40;0.60;;;;;;;12.38;66.17;99877.69;5055154;28;20422;-68
2023/11/09 11:30:28;;;;;;;2.10;0.60;;;;;;;12.39;66.39;99873.03;5055398;28;20541;-69
2023/11/09 11:32:58;;;;;;;2.10;0.70;;;;;;;12.41;66.68;99872.72;5054866;28;20438;-68
2023/11/09 11:35:33;;;;;;;2.30;0.67;;;;;;;12.40;68.00;99873.88;5054915;28;20482;-67
2023/11/09 11:38:05;;;;;;;1.80;0.50;;;;;;;12.41;67.47;99881.66;5054936;28;20418;-68
2023/11/09 11:40:39;;;;;;;2.00;0.50;;;;;;;12.47;67.20;99885.78;5054739;28;20431;-68
2023/11/09 11:43:08;;;;;;;1.97;0.53;;;;;;;12.42;68.08;99882.47;5053692;28;20418;-68
2023/11/09 11:45:35;;;;;;;2.13;0.67;;;;;;;12.43;68.67;99879.41;5054744;28;20457;-68
2023/11/09 11:48:05;;;;;;;2.47;0.60;;;;;;;12.43;69.19;99875.91;5054707;28;20448;-68
2023/11/09 11:50:34;;;;;;;2.33;0.70;;;;;;;12.38;72.29;99883.13;5054458;28;20790;-68